createdAt,value
2022-10-30T00:01:17.202Z,24.27
2022-10-30T00:03:43.661Z,25.42
2022-10-30T00:06:10.175Z,22.27
2022-10-30T00:08:36.660Z,25.27
2022-10-30T00:11:16.297Z,27.52
2022-10-30T00:13:44.745Z,22.67
2022-10-30T00:16:11.344Z,26.95
2022-10-30T00:18:39.910Z,23.67
2022-10-30T00:21:12.403Z,27.83
2022-10-30T00:23:40.988Z,19.98
2022-10-30T00:26:08.072Z,24.40
2022-10-30T00:28:34.937Z,20.70
2022-10-30T00:31:05.468Z,22.25
2022-10-30T00:33:32.769Z,23.58
2022-10-30T00:35:59.903Z,23.00
2022-10-30T00:38:26.673Z,23.80
2022-10-30T00:40:53.420Z,19.08
2022-10-30T00:43:33.930Z,20.13
2022-10-30T00:46:22.899Z,22.52
2022-10-30T00:48:59.628Z,21.42
2022-10-30T00:51:28.769Z,26.55
2022-10-30T00:53:57.547Z,25.33
2022-10-30T00:56:24.692Z,24.25
2022-10-30T00:58:58.482Z,22.40
2022-10-30T01:01:27.527Z,21.40
2022-10-30T01:03:58.219Z,19.33
2022-10-30T01:06:25.685Z,20.50
2022-10-30T01:08:58.811Z,29.00
2022-10-30T01:11:26.962Z,23.83
2022-10-30T01:13:57.522Z,23.92
2022-10-30T01:16:37.563Z,21.58
2022-10-30T01:19:15.970Z,23.00
2022-10-30T01:22:03.834Z,22.58
2022-10-30T01:24:45.409Z,17.60
2022-10-30T01:27:27.099Z,24.38
2022-10-30T01:30:06.357Z,23.10
2022-10-30T01:32:35.493Z,21.20
2022-10-30T01:35:31.742Z,22.13
2022-10-30T01:38:13.959Z,24.58
2022-10-30T01:40:40.412Z,22.88
2022-10-30T01:43:12.613Z,19.85
2022-10-30T01:46:09.589Z,24.45
2022-10-30T01:48:54.028Z,21.55
2022-10-30T01:51:45.101Z,22.15
2022-10-30T01:54:27.931Z,24.30
2022-10-30T01:57:18.856Z,24.88
2022-10-30T01:59:58.157Z,22.98
2022-10-30T02:02:24.930Z,23.55
2022-10-30T02:04:51.710Z,27.80
2022-10-30T02:07:18.831Z,21.58
2022-10-30T02:09:45.395Z,26.38
2022-10-30T02:12:11.807Z,26.65
2022-10-30T02:14:43.086Z,30.40
2022-10-30T02:17:13.938Z,24.92
2022-10-30T02:19:40.352Z,21.05
2022-10-30T02:22:07.111Z,20.33
2022-10-30T02:24:33.575Z,24.02
2022-10-30T02:27:00.064Z,23.23
2022-10-30T02:29:26.840Z,20.13
2022-10-30T02:31:53.721Z,20.48
2022-10-30T02:34:23.180Z,22.30
2022-10-30T02:36:49.583Z,21.35
2022-10-30T02:39:16.006Z,23.63
2022-10-30T02:41:42.389Z,25.70
2022-10-30T02:44:08.859Z,28.67
2022-10-30T02:46:35.413Z,23.67
2022-10-30T02:49:02.752Z,20.80
2022-10-30T02:51:31.498Z,19.65
2022-10-30T02:54:01.153Z,19.23
2022-10-30T02:56:27.787Z,25.33
2022-10-30T02:58:55.899Z,25.20
2022-10-30T03:01:22.411Z,20.40
2022-10-30T03:03:48.925Z,16.85
2022-10-30T03:06:16.911Z,25.50
2022-10-30T03:08:44.362Z,23.55
2022-10-30T03:11:20.964Z,23.33
2022-10-30T03:13:48.458Z,22.65
2022-10-30T03:16:23.429Z,24.98
2022-10-30T03:18:55.549Z,22.92
2022-10-30T03:21:24.779Z,19.27
2022-10-30T03:23:51.503Z,19.85
2022-10-30T03:26:19.001Z,24.67
2022-10-30T03:28:45.478Z,29.30
2022-10-30T03:31:14.731Z,21.15
2022-10-30T03:33:41.505Z,24.92
2022-10-30T03:36:10.286Z,26.83
2022-10-30T03:38:37.481Z,23.65
2022-10-30T03:41:04.539Z,23.02
2022-10-30T03:43:31.105Z,23.52
2022-10-30T03:45:57.973Z,23.42
2022-10-30T03:48:26.398Z,27.52
2022-10-30T03:50:59.731Z,20.42
2022-10-30T03:53:28.363Z,23.15
2022-10-30T03:56:15.547Z,23.80
2022-10-30T03:58:41.965Z,21.30
2022-10-30T04:01:09.843Z,18.48
2022-10-30T04:03:36.420Z,24.67
2022-10-30T04:06:03.198Z,19.33
2022-10-30T04:08:32.719Z,23.10
2022-10-30T04:10:59.254Z,23.23
2022-10-30T04:13:26.131Z,24.25
2022-10-30T04:15:56.357Z,21.90
2022-10-30T04:18:25.393Z,20.98
2022-10-30T04:20:51.932Z,22.10
2022-10-30T04:23:20.081Z,20.58
2022-10-30T04:25:46.530Z,17.45
2022-10-30T04:28:13.566Z,19.63
2022-10-30T04:30:40.558Z,20.17
2022-10-30T04:33:10.333Z,18.90
2022-10-30T04:35:41.299Z,19.48
2022-10-30T04:38:10.421Z,17.67
2022-10-30T04:40:40.372Z,19.75
2022-10-30T04:43:07.893Z,20.33
2022-10-30T04:45:34.959Z,23.52
2022-10-30T04:48:21.688Z,18.45
2022-10-30T04:50:48.225Z,19.75
2022-10-30T04:53:27.352Z,20.48
2022-10-30T04:55:54.734Z,21.00
2022-10-30T04:58:21.189Z,19.35
2022-10-30T05:00:47.600Z,36.88
2022-10-30T05:03:23.012Z,20.75
2022-10-30T05:05:57.948Z,20.60
2022-10-30T05:08:24.473Z,22.20
2022-10-30T05:10:50.917Z,24.33
2022-10-30T05:13:17.293Z,32.13
2022-10-30T05:15:43.726Z,23.27
2022-10-30T05:18:10.580Z,20.55
2022-10-30T05:20:36.996Z,26.08
2022-10-30T05:23:03.629Z,17.00
2022-10-30T05:25:30.409Z,23.30
2022-10-30T05:28:04.912Z,21.95
2022-10-30T05:30:33.007Z,23.93
2022-10-30T05:33:11.721Z,21.42
2022-10-30T05:35:38.761Z,21.25
2022-10-30T05:38:07.226Z,21.70
2022-10-30T05:40:34.739Z,23.98
2022-10-30T05:43:02.130Z,22.65
2022-10-30T05:45:37.580Z,22.45
2022-10-30T05:50:35.333Z,22.23
2022-10-30T05:53:04.182Z,25.33
2022-10-30T05:55:31.087Z,21.83
2022-10-30T05:58:05.477Z,18.73
2022-10-30T06:00:35.158Z,24.67
2022-10-30T06:03:06.605Z,18.63
2022-10-30T06:05:36.216Z,25.35
2022-10-30T06:08:04.955Z,21.55
2022-10-30T06:10:32.026Z,26.60
2022-10-30T06:13:01.104Z,25.10
2022-10-30T06:15:29.645Z,20.25
2022-10-30T06:17:56.708Z,22.75
2022-10-30T06:20:26.337Z,17.98
2022-10-30T06:23:06.962Z,22.33
2022-10-30T06:25:40.732Z,20.67
2022-10-30T06:28:09.354Z,27.70
2022-10-30T06:30:35.912Z,22.73
2022-10-30T06:33:04.680Z,27.85
2022-10-30T06:35:32.089Z,24.48
2022-10-30T06:38:00.385Z,22.50
2022-10-30T06:40:28.243Z,21.40
2022-10-30T06:42:54.927Z,22.77
2022-10-30T06:45:23.488Z,24.48
2022-10-30T06:47:50.435Z,22.60
2022-10-30T06:50:19.405Z,20.88
2022-10-30T06:52:46.919Z,23.40
2022-10-30T06:55:13.695Z,21.30
2022-10-30T06:57:40.363Z,27.75
2022-10-30T07:00:08.461Z,18.33
2022-10-30T07:02:35.264Z,18.55
2022-10-30T07:05:07.450Z,26.80
2022-10-30T07:07:34.370Z,24.98
2022-10-30T07:10:00.899Z,24.50
2022-10-30T07:12:27.642Z,21.40
2022-10-30T07:14:54.119Z,23.50
2022-10-30T07:17:20.597Z,23.20
2022-10-30T07:19:47.029Z,19.63
2022-10-30T07:22:13.432Z,19.95
2022-10-30T07:24:39.882Z,21.02
2022-10-30T07:27:06.342Z,25.10
2022-10-30T07:29:32.831Z,22.50
2022-10-30T07:32:03.348Z,19.85
2022-10-30T07:34:30.545Z,24.08
2022-10-30T07:36:57.005Z,21.40
2022-10-30T07:39:23.589Z,22.20
2022-10-30T07:41:53.361Z,19.90
2022-10-30T07:44:19.774Z,19.60
2022-10-30T07:46:46.158Z,29.10
2022-10-30T07:49:12.593Z,21.17
2022-10-30T07:51:39.185Z,22.48
2022-10-30T07:54:05.742Z,24.52
2022-10-30T07:56:32.166Z,23.95
2022-10-30T07:58:58.650Z,21.77
2022-10-30T08:01:25.324Z,18.73
2022-10-30T08:03:51.949Z,23.45
2022-10-30T08:06:21.407Z,20.58
2022-10-30T08:08:51.202Z,20.80
2022-10-30T08:11:17.699Z,18.42
2022-10-30T08:13:44.174Z,19.15
2022-10-30T08:16:10.724Z,21.17
2022-10-30T08:18:42.339Z,24.33
2022-10-30T08:21:09.150Z,21.05
2022-10-30T08:23:35.825Z,23.60
2022-10-30T08:26:02.268Z,21.23
2022-10-30T08:28:31.815Z,20.52
2022-10-30T08:31:01.113Z,28.50
2022-10-30T08:33:27.655Z,26.55
2022-10-30T08:35:56.748Z,24.92
2022-10-30T08:38:23.905Z,26.75
2022-10-30T08:40:50.436Z,18.92
2022-10-30T08:43:16.834Z,19.13
2022-10-30T08:45:43.342Z,28.35
2022-10-30T08:48:11.924Z,29.08
2022-10-30T08:50:38.345Z,24.27
2022-10-30T08:53:08.285Z,19.02
2022-10-30T08:55:35.474Z,18.27
2022-10-30T08:58:02.052Z,18.20
2022-10-30T09:00:29.042Z,23.33
2022-10-30T09:02:56.151Z,20.85
2022-10-30T09:05:22.931Z,31.40
2022-10-30T09:07:49.367Z,20.05
2022-10-30T09:10:16.421Z,24.15
2022-10-30T09:12:42.892Z,26.38
2022-10-30T09:15:09.589Z,24.02
2022-10-30T09:17:36.094Z,19.55
2022-10-30T09:20:02.648Z,23.98
2022-10-30T09:22:29.191Z,20.30
2022-10-30T09:24:55.592Z,17.02
2022-10-30T09:27:22.029Z,21.83
2022-10-30T09:29:48.546Z,29.33
2022-10-30T09:32:15.004Z,16.27
2022-10-30T09:34:41.893Z,20.70
2022-10-30T09:37:08.399Z,18.85
2022-10-30T09:39:34.889Z,21.58
2022-10-30T09:42:07.387Z,18.77
2022-10-30T09:45:15.320Z,15.82
2022-10-30T09:47:41.883Z,20.73
2022-10-30T09:50:11.298Z,19.17
2022-10-30T09:52:53.734Z,17.02
2022-10-30T09:55:45.266Z,24.45
2022-10-30T09:58:24.565Z,18.30
2022-10-30T10:00:54.087Z,21.88
2022-10-30T10:03:32.798Z,21.55
2022-10-30T10:06:00.765Z,20.42
2022-10-30T10:08:34.048Z,21.45
2022-10-30T10:11:08.361Z,23.73
2022-10-30T10:13:42.049Z,15.40
2022-10-30T10:16:22.583Z,21.65
2022-10-30T10:19:09.286Z,16.80
2022-10-30T10:21:43.007Z,19.65
2022-10-30T10:24:34.778Z,20.27
2022-10-30T10:27:39.735Z,17.95
2022-10-30T10:30:20.165Z,17.65
2022-10-30T10:33:04.867Z,17.65
2022-10-30T10:35:51.275Z,18.05
2022-10-30T10:38:23.494Z,14.15
2022-10-30T10:40:52.834Z,15.98
2022-10-30T10:43:25.251Z,15.98
2022-10-30T10:46:22.764Z,15.75
2022-10-30T10:49:27.075Z,17.92
2022-10-30T10:52:09.929Z,15.65
2022-10-30T10:54:46.668Z,14.88
2022-10-30T10:57:32.484Z,14.20
2022-10-30T11:00:04.214Z,15.50
2022-10-30T11:02:59.085Z,18.92
2022-10-30T11:05:48.150Z,21.27
2022-10-30T11:08:19.840Z,12.70
2022-10-30T11:10:56.154Z,22.90
2022-10-30T11:13:25.006Z,16.80
2022-10-30T11:15:57.928Z,22.67
2022-10-30T11:18:25.089Z,27.98
2022-10-30T11:20:51.428Z,17.35
2022-10-30T11:23:34.586Z,16.92
2022-10-30T11:26:04.506Z,16.42
2022-10-30T11:28:48.944Z,15.27
2022-10-30T11:31:40.582Z,17.45
2022-10-30T11:34:14.767Z,14.88
2022-10-30T11:36:41.718Z,14.43
2022-10-30T11:39:28.853Z,20.83
2022-10-30T11:41:58.398Z,17.55
2022-10-30T11:44:32.930Z,13.65
2022-10-30T11:47:00.532Z,19.48
2022-10-30T11:50:07.680Z,14.20
2022-10-30T11:52:42.290Z,16.20
2022-10-30T11:55:18.253Z,17.58
2022-10-30T11:57:50.412Z,17.15
2022-10-30T12:00:23.227Z,15.73
2022-10-30T12:02:52.618Z,17.80
2022-10-30T12:05:43.604Z,18.23
2022-10-30T12:08:15.320Z,14.50
2022-10-30T12:10:47.701Z,17.48
2022-10-30T12:13:19.483Z,10.57
2022-10-30T12:15:49.898Z,14.20
2022-10-30T12:18:22.571Z,16.00
2022-10-30T12:20:55.582Z,15.35
2022-10-30T12:23:25.868Z,14.93
2022-10-30T12:25:59.435Z,15.98
2022-10-30T12:28:31.658Z,19.88
2022-10-30T12:31:21.491Z,12.23
2022-10-30T12:36:47.247Z,16.95
2022-10-30T12:39:31.278Z,11.50
2022-10-30T12:42:05.788Z,15.15
2022-10-30T12:44:48.626Z,12.20
2022-10-30T12:47:35.756Z,14.20
2022-10-30T12:50:14.095Z,13.60
2022-10-30T12:52:45.687Z,9.63
2022-10-30T12:55:26.893Z,12.45
2022-10-30T12:58:26.143Z,14.30
2022-10-30T13:01:01.007Z,13.35
2022-10-30T13:06:08.270Z,14.73
2022-10-30T13:08:37.740Z,10.00
2022-10-30T13:11:30.379Z,15.75
2022-10-30T13:13:59.310Z,20.33
2022-10-30T13:16:31.374Z,13.48
2022-10-30T13:19:00.655Z,17.75
2022-10-30T13:21:36.478Z,15.27
2022-10-30T13:24:23.688Z,16.75
2022-10-30T13:26:53.251Z,12.68
2022-10-30T13:29:27.239Z,14.52
2022-10-30T13:32:19.977Z,12.95
2022-10-30T13:35:15.722Z,16.50
2022-10-30T13:40:22.570Z,17.83
2022-10-30T13:43:16.942Z,11.18
2022-10-30T13:45:52.358Z,22.95
2022-10-30T13:48:37.518Z,17.58
2022-10-30T13:51:21.922Z,21.48
2022-10-30T13:53:58.425Z,18.83
2022-10-30T13:56:24.975Z,14.00
2022-10-30T13:59:07.949Z,21.63
2022-10-30T14:01:46.437Z,21.30
2022-10-30T14:04:17.247Z,17.35
2022-10-30T14:06:46.734Z,17.35
2022-10-30T14:09:43.179Z,21.52
2022-10-30T14:12:47.387Z,18.58
2022-10-30T14:15:32.197Z,19.63
2022-10-30T14:18:14.146Z,17.80
2022-10-30T14:20:46.310Z,15.18
2022-10-30T14:23:19.498Z,16.35
2022-10-30T14:26:13.600Z,13.25
2022-10-30T14:28:43.849Z,11.77
2022-10-30T14:31:18.647Z,17.73
2022-10-30T14:33:45.541Z,16.77
2022-10-30T14:36:22.521Z,16.73
2022-10-30T14:39:15.154Z,16.95
2022-10-30T14:41:49.476Z,22.45
2022-10-30T14:44:37.643Z,19.30
2022-10-30T14:47:25.990Z,20.65
2022-10-30T14:50:04.865Z,23.83
2022-10-30T14:52:48.530Z,17.35
2022-10-30T14:55:48.429Z,14.18
2022-10-30T14:58:21.288Z,19.67
2022-10-30T15:00:48.429Z,25.50
2022-10-30T15:03:30.398Z,19.77
2022-10-30T15:06:02.259Z,18.63
2022-10-30T15:08:41.009Z,21.05
2022-10-30T15:11:30.657Z,21.95
2022-10-30T15:14:01.334Z,17.33
2022-10-30T15:16:29.405Z,18.55
2022-10-30T15:19:04.426Z,22.73
2022-10-30T15:24:02.343Z,17.85
2022-10-30T15:26:35.986Z,22.83
2022-10-30T15:29:03.748Z,20.95
2022-10-30T15:31:30.248Z,17.08
2022-10-30T15:33:59.919Z,21.90
2022-10-30T15:36:30.432Z,18.90
2022-10-30T15:39:05.801Z,23.83
2022-10-30T15:41:42.134Z,21.73
2022-10-30T15:44:08.666Z,20.23
2022-10-30T15:46:35.185Z,20.35
2022-10-30T15:49:01.798Z,19.38
2022-10-30T15:51:28.337Z,19.10
2022-10-30T15:54:01.094Z,24.48
2022-10-30T15:56:33.283Z,20.65
2022-10-30T15:59:08.000Z,19.60
2022-10-30T16:01:43.498Z,22.02
2022-10-30T16:04:23.160Z,25.73
2022-10-30T16:07:17.918Z,25.60
2022-10-30T16:09:53.772Z,44.67
2022-10-30T16:12:21.103Z,25.33
2022-10-30T16:14:47.661Z,28.48
2022-10-30T16:17:14.137Z,21.73
2022-10-30T16:19:46.870Z,19.98
2022-10-30T16:22:19.077Z,20.20
2022-10-30T16:24:45.818Z,22.05
2022-10-30T16:27:21.070Z,20.90
2022-10-30T16:29:50.712Z,22.13
2022-10-30T16:32:21.235Z,29.67
2022-10-30T16:34:48.796Z,29.80
2022-10-30T16:37:24.460Z,21.23
2022-10-30T16:39:53.466Z,25.50
2022-10-30T16:42:29.128Z,29.05
2022-10-30T16:45:27.854Z,23.38
2022-10-30T16:48:00.166Z,33.47
2022-10-30T16:50:35.427Z,24.23
2022-10-30T16:53:18.562Z,21.25
2022-10-30T16:55:45.318Z,31.40
2022-10-30T16:58:13.828Z,28.13
2022-10-30T17:00:42.065Z,30.85
2022-10-30T17:03:11.535Z,25.17
2022-10-30T17:05:40.503Z,27.02
2022-10-30T17:08:27.119Z,31.85
2022-10-30T17:11:02.339Z,31.65
2022-10-30T17:15:55.898Z,27.65
2022-10-30T17:18:34.149Z,31.42
2022-10-30T17:21:11.107Z,27.20
2022-10-30T17:23:44.929Z,28.92
2022-10-30T17:26:12.830Z,25.23
2022-10-30T17:28:39.493Z,23.95
2022-10-30T17:31:31.951Z,20.77
2022-10-30T17:34:06.246Z,19.95
2022-10-30T17:36:32.900Z,24.55
2022-10-30T17:38:59.491Z,32.13
2022-10-30T17:41:26.117Z,31.98
2022-10-30T17:43:55.984Z,24.75
2022-10-30T17:46:24.038Z,27.10
2022-10-30T17:48:50.988Z,32.03
2022-10-30T17:51:18.899Z,26.63
2022-10-30T17:53:48.667Z,24.70
2022-10-30T17:56:19.595Z,26.13
2022-10-30T17:58:46.374Z,28.98
2022-10-30T18:01:22.217Z,28.35
2022-10-30T18:03:50.114Z,34.35
2022-10-30T18:06:25.898Z,26.13
2022-10-30T18:08:53.553Z,27.88
2022-10-30T18:11:25.054Z,30.00
2022-10-30T18:13:52.664Z,26.80
2022-10-30T18:16:19.794Z,33.38
2022-10-30T18:18:46.465Z,32.47
2022-10-30T18:21:17.661Z,39.88
2022-10-30T18:23:52.376Z,44.63
2022-10-30T18:26:25.242Z,39.05
2022-10-30T18:28:51.886Z,44.50
2022-10-30T18:31:23.750Z,47.20
2022-10-30T18:33:50.898Z,42.05
2022-10-30T18:36:20.256Z,34.42
2022-10-30T18:38:47.033Z,44.05
2022-10-30T18:41:15.248Z,46.58
2022-10-30T18:43:45.660Z,29.02
2022-10-30T18:46:14.630Z,23.45
2022-10-30T18:48:41.113Z,32.97
2022-10-30T18:51:16.293Z,30.42
2022-10-30T18:53:50.966Z,32.10
2022-10-30T18:56:27.526Z,38.70
2022-10-30T18:58:58.790Z,31.52
2022-10-30T19:01:31.513Z,34.13
2022-10-30T19:04:00.886Z,30.40
2022-10-30T19:06:27.676Z,30.15
2022-10-30T19:08:54.053Z,29.30
2022-10-30T19:11:24.637Z,30.05
2022-10-30T19:13:53.741Z,31.60
2022-10-30T19:16:21.264Z,28.20
2022-10-30T19:18:48.444Z,35.70
2022-10-30T19:21:35.232Z,34.05
2022-10-30T19:24:02.734Z,30.35
2022-10-30T19:26:29.120Z,28.67
2022-10-30T19:28:55.623Z,32.92
2022-10-30T19:31:22.166Z,33.28
2022-10-30T19:33:53.032Z,27.77
2022-10-30T19:36:33.491Z,25.05
2022-10-30T19:39:05.753Z,26.02
2022-10-30T19:41:35.333Z,26.02
2022-10-30T19:44:01.714Z,28.02
2022-10-30T19:46:28.128Z,23.60
2022-10-30T19:48:57.708Z,28.58
2022-10-30T19:51:26.407Z,27.52
2022-10-30T19:53:53.715Z,30.08
2022-10-30T19:56:21.035Z,26.05
2022-10-30T19:58:47.747Z,29.70
2022-10-30T20:01:14.808Z,24.98
2022-10-30T20:03:41.400Z,26.10
2022-10-30T20:06:12.973Z,26.92
2022-10-30T20:08:39.412Z,28.30
2022-10-30T20:11:05.901Z,25.98
2022-10-30T20:13:33.394Z,26.38
2022-10-30T20:16:00.729Z,30.63
2022-10-30T20:18:30.592Z,32.78
2022-10-30T20:20:59.589Z,33.63
2022-10-30T20:23:26.400Z,28.70
2022-10-30T20:25:57.503Z,32.38
2022-10-30T20:28:28.445Z,32.60
2022-10-30T20:30:55.435Z,33.40
2022-10-30T20:33:23.158Z,30.70
2022-10-30T20:35:51.088Z,28.33
2022-10-30T20:38:20.152Z,26.65
2022-10-30T20:40:47.951Z,27.92
2022-10-30T20:43:20.114Z,25.38
2022-10-30T20:45:47.444Z,32.80
2022-10-30T20:48:14.116Z,28.05
2022-10-30T20:50:41.635Z,28.23
2022-10-30T20:53:12.111Z,26.10
2022-10-30T20:55:38.838Z,28.98
2022-10-30T20:58:06.141Z,27.13
2022-10-30T21:00:32.790Z,33.30
2022-10-30T21:03:01.852Z,24.27
2022-10-30T21:05:43.159Z,24.13
2022-10-30T21:08:11.089Z,28.42
2022-10-30T21:10:38.395Z,27.33
2022-10-30T21:13:08.669Z,28.50
2022-10-30T21:15:41.640Z,29.13
2022-10-30T21:18:08.867Z,29.15
2022-10-30T21:20:36.795Z,27.80
2022-10-30T21:23:03.730Z,26.80
2022-10-30T21:25:32.215Z,29.83
2022-10-30T21:27:59.140Z,27.25
2022-10-30T21:30:25.687Z,28.85
2022-10-30T21:32:52.172Z,28.20
2022-10-30T21:35:18.941Z,29.02
2022-10-30T21:37:45.437Z,24.40
2022-10-30T21:40:12.580Z,28.20
2022-10-30T21:42:39.062Z,23.42
2022-10-30T21:45:06.316Z,27.42
2022-10-30T21:47:32.725Z,27.02
2022-10-30T21:49:59.142Z,25.70
2022-10-30T21:52:25.553Z,33.78
2022-10-30T21:54:51.965Z,28.75
2022-10-30T21:57:25.520Z,29.98
2022-10-30T21:59:51.953Z,27.38
2022-10-30T22:02:18.463Z,32.35
2022-10-30T22:04:47.297Z,30.55
2022-10-30T22:07:13.772Z,31.95
2022-10-30T22:09:40.158Z,33.00
2022-10-30T22:12:06.999Z,31.02
2022-10-30T22:14:33.442Z,30.42
2022-10-30T22:16:59.899Z,28.02
2022-10-30T22:19:26.330Z,32.28
2022-10-30T22:21:52.722Z,26.83
2022-10-30T22:24:19.158Z,35.42
2022-10-30T22:26:46.228Z,31.65
2022-10-30T22:29:12.756Z,28.77
2022-10-30T22:31:39.150Z,36.80
2022-10-30T22:34:05.556Z,30.95
2022-10-30T22:36:33.596Z,26.58
2022-10-30T22:39:05.650Z,29.25
2022-10-30T22:41:36.491Z,27.55
2022-10-30T22:44:08.001Z,28.15
2022-10-30T22:46:35.710Z,26.63
2022-10-30T22:49:02.286Z,28.70
2022-10-30T22:51:32.887Z,30.80
2022-10-30T22:54:01.779Z,29.13
2022-10-30T22:56:31.512Z,32.83
2022-10-30T22:59:00.993Z,28.05
2022-10-30T23:01:29.651Z,33.00
2022-10-30T23:03:58.593Z,27.55
2022-10-30T23:06:25.750Z,30.02
2022-10-30T23:08:54.549Z,28.85
2022-10-30T23:11:21.309Z,31.77
2022-10-30T23:13:48.391Z,26.77
2022-10-30T23:16:18.874Z,28.10
2022-10-30T23:18:46.271Z,27.90
2022-10-30T23:21:16.170Z,26.42
2022-10-30T23:23:43.532Z,31.30
2022-10-30T23:26:17.324Z,27.92
2022-10-30T23:28:44.931Z,29.52
2022-10-30T23:31:30.562Z,26.73
2022-10-30T23:33:59.464Z,28.60
2022-10-30T23:36:26.985Z,29.80
2022-10-30T23:38:55.038Z,26.33
2022-10-30T23:41:23.573Z,25.73
2022-10-30T23:43:53.913Z,29.48
2022-10-30T23:46:20.527Z,30.10
2022-10-30T23:48:47.221Z,26.23
2022-10-30T23:51:13.835Z,28.70
2022-10-30T23:53:40.250Z,29.40
2022-10-30T23:56:07.171Z,27.15
2022-10-30T23:58:33.621Z,28.50
